Time;durP1;ratioP1;P1;durP2;ratioP2;P2;SDS_P1;SDS_P2;PMS_P1;PMS_P2;Temp;Humidity;BMP_temperature;BMP_pressure;BME280_temperature;BME280_humidity;BME280_pressure;Samples;Min_cycle;Max_cycle;Signal;HPM_P1;HPM_P2
2023/10/27 00:01:16;;;;;;;13.77;13.30;;;12.30;99.90;;;;;;5078928;28;20562;-80
2023/10/27 00:03:44;;;;;;;13.50;13.00;;;12.30;99.90;;;;;;5075920;28;20472;-81
2023/10/27 00:06:14;;;;;;;13.57;12.97;;;12.30;99.90;;;;;;5071698;28;20559;-81
2023/10/27 00:08:42;;;;;;;13.70;13.20;;;12.20;1.00;;;;;;5076850;28;20491;-81
2023/10/27 00:11:12;;;;;;;13.43;13.03;;;12.20;99.90;;;;;;5074196;28;20470;-81
2023/10/27 00:13:40;;;;;;;14.07;13.40;;;12.20;1.00;;;;;;5075611;28;20458;-80
2023/10/27 00:16:10;;;;;;;14.10;13.50;;;12.10;99.90;;;;;;5079090;28;20589;-81
2023/10/27 00:18:39;;;;;;;13.37;12.97;;;12.10;99.90;;;;;;5079024;28;20467;-80
2023/10/27 00:21:07;;;;;;;13.83;13.33;;;12.20;99.90;;;;;;5075056;28;20474;-80
2023/10/27 00:23:37;;;;;;;13.53;13.13;;;12.20;99.90;;;;;;5078488;28;20486;-79
2023/10/27 00:26:06;;;;;;;13.67;13.17;;;12.20;39.70;;;;;;5079265;28;20893;-80
2023/10/27 00:28:35;;;;;;;13.23;12.70;;;12.20;39.80;;;;;;5078849;28;20451;-79
2023/10/27 00:31:03;;;;;;;13.53;13.13;;;12.20;99.90;;;;;;5074552;28;20453;-79
2023/10/27 00:33:33;;;;;;;13.57;12.87;;;12.20;1.00;;;;;;5078754;28;20459;-80
2023/10/27 00:36:01;;;;;;;13.63;13.13;;;12.10;1.00;;;;;;5075745;28;20463;-80
2023/10/27 00:38:32;;;;;;;14.13;13.43;;;12.20;99.90;;;;;;5080502;28;20447;-80
2023/10/27 00:41:02;;;;;;;13.30;12.80;;;12.10;99.90;;;;;;5078154;28;20514;-79
2023/10/27 00:43:30;;;;;;;13.83;13.33;;;12.10;99.90;;;;;;5075613;28;20601;-80
2023/10/27 00:46:00;;;;;;;13.90;13.40;;;12.10;1.00;;;;;;5075778;28;20486;-81
2023/10/27 00:48:29;;;;;;;13.40;12.90;;;12.10;1.00;;;;;;5078342;28;20451;-80
2023/10/27 00:50:58;;;;;;;13.90;13.40;;;12.00;1.00;;;;;;5075959;28;20456;-80
2023/10/27 00:53:26;;;;;;;13.03;12.63;;;12.00;85.70;;;;;;5074931;28;20498;-80
2023/10/27 00:55:55;;;;;;;13.70;13.13;;;12.00;1.00;;;;;;5075219;28;20478;-80
2023/10/27 00:58:27;;;;;;;13.73;13.23;;;12.00;1.00;;;;;;5079013;28;20512;-80
2023/10/27 01:00:57;;;;;;;13.97;13.27;;;12.00;99.90;;;;;;5077721;28;20474;-81
2023/10/27 01:03:26;;;;;;;14.00;13.30;;;12.00;1.00;;;;;;5079178;28;20458;-80
2023/10/27 01:05:54;;;;;;;13.47;13.10;;;11.90;1.00;;;;;;5076385;28;20910;-80
2023/10/27 01:08:22;;;;;;;13.40;12.83;;;12.00;99.90;;;;;;5075488;28;20454;-80
2023/10/27 01:10:51;;;;;;;13.10;12.60;;;12.00;1.00;;;;;;5075062;28;20542;-81
2023/10/27 01:13:19;;;;;;;13.43;12.93;;;11.90;99.90;;;;;;5077846;28;20468;-80
2023/10/27 01:15:49;;;;;;;14.07;13.57;;;11.90;99.90;;;;;;5077864;28;20450;-80
2023/10/27 01:18:17;;;;;;;13.20;12.80;;;11.90;19.00;;;;;;5078600;28;20524;-80
2023/10/27 01:20:45;;;;;;;13.73;13.13;;;11.90;30.50;;;;;;5075911;28;20527;-80
2023/10/27 01:23:16;;;;;;;13.10;12.70;;;11.90;1.00;;;;;;5077742;28;20467;-80
2023/10/27 01:25:44;;;;;;;13.67;13.10;;;11.90;99.90;;;;;;5076052;28;20459;-80
2023/10/27 01:28:12;;;;;;;12.90;12.60;;;11.90;1.00;;;;;;5073916;28;20467;-80
2023/10/27 01:30:40;;;;;;;14.30;13.60;;;11.90;19.30;;;;;;5075914;28;20560;-80
2023/10/27 01:33:09;;;;;;;13.87;13.37;;;11.80;1.00;;;;;;5074140;28;20461;-79
2023/10/27 01:35:37;;;;;;;14.03;13.63;;;11.90;99.90;;;;;;5075797;28;20451;-80
2023/10/27 01:38:05;;;;;;;13.70;13.30;;;11.80;1.00;;;;;;5074202;28;21298;-80
2023/10/27 01:40:35;;;;;;;14.10;13.57;;;11.90;99.90;;;;;;5076614;28;20466;-81
2023/10/27 01:43:03;;;;;;;13.97;13.43;;;11.80;1.00;;;;;;5079653;28;20490;-80
2023/10/27 01:45:31;;;;;;;14.43;13.60;;;11.90;99.90;;;;;;5074776;28;20446;-78
2023/10/27 01:47:59;;;;;;;13.50;13.10;;;11.90;99.90;;;;;;5075531;28;20480;-80
2023/10/27 01:50:28;;;;;;;13.57;13.10;;;11.80;1.00;;;;;;5074785;28;20837;-81
2023/10/27 01:52:56;;;;;;;13.00;12.60;;;11.70;1.00;;;;;;5074056;28;20458;-80
2023/10/27 01:55:29;;;;;;;13.53;13.13;;;11.70;99.90;;;;;;5076011;28;20458;-81
2023/10/27 01:57:58;;;;;;;12.80;12.50;;;11.70;52.80;;;;;;5075644;28;20469;-80
2023/10/27 02:00:27;;;;;;;13.03;12.60;;;11.70;1.00;;;;;;5071881;28;20462;-80
2023/10/27 02:02:55;;;;;;;13.10;12.73;;;11.70;99.90;;;;;;5076152;28;20455;-80
2023/10/27 02:05:23;;;;;;;13.20;12.80;;;11.70;1.00;;;;;;5070649;28;21162;-80
2023/10/27 02:07:51;;;;;;;13.40;12.90;;;11.70;99.90;;;;;;5073777;28;21035;-80
2023/10/27 02:10:20;;;;;;;13.30;13.00;;;11.70;37.60;;;;;;5078540;28;21058;-79
2023/10/27 02:12:48;;;;;;;13.20;12.70;;;11.70;1.00;;;;;;5078733;28;20470;-80
2023/10/27 02:15:18;;;;;;;13.50;13.00;;;11.80;99.90;;;;;;5068589;28;20864;-80
2023/10/27 02:17:46;;;;;;;13.60;12.80;;;11.70;45.90;;;;;;5076088;28;20559;-80
2023/10/27 02:20:14;;;;;;;13.50;13.10;;;11.70;99.90;;;;;;5072808;28;20989;-79
2023/10/27 02:22:42;;;;;;;13.50;13.10;;;11.70;41.50;;;;;;5073034;28;20479;-80
2023/10/27 02:25:10;;;;;;;13.57;12.97;;;11.70;99.90;;;;;;5075036;28;20537;-79
2023/10/27 02:27:40;;;;;;;13.63;13.13;;;11.60;99.90;;;;;;5068586;28;20485;-79
2023/10/27 02:30:09;;;;;;;13.13;12.83;;;11.60;1.00;;;;;;5079262;28;20508;-79
2023/10/27 02:32:39;;;;;;;12.90;12.50;;;11.60;99.90;;;;;;5073596;28;20865;-79
2023/10/27 02:35:08;;;;;;;13.37;12.97;;;11.60;1.00;;;;;;5074025;28;20450;-80
2023/10/27 02:37:36;;;;;;;13.73;13.23;;;11.70;99.90;;;;;;5075521;28;20474;-80
2023/10/27 02:40:06;;;;;;;13.57;13.07;;;11.60;1.00;;;;;;5075316;28;20459;-80
2023/10/27 02:42:37;;;;;;;13.83;13.43;;;11.60;99.90;;;;;;5073533;28;20476;-80
2023/10/27 02:45:06;;;;;;;13.30;12.60;;;11.60;99.90;;;;;;5074565;28;20455;-80
2023/10/27 02:47:34;;;;;;;13.23;12.90;;;11.60;1.00;;;;;;5076131;28;20487;-80
2023/10/27 02:50:04;;;;;;;12.90;12.60;;;11.60;1.00;;;;;;5067967;28;20466;-80
2023/10/27 02:52:32;;;;;;;13.20;12.90;;;11.60;77.60;;;;;;5072667;28;20535;-80
2023/10/27 02:55:00;;;;;;;13.10;12.80;;;11.60;99.90;;;;;;5072117;28;20453;-80
2023/10/27 02:57:29;;;;;;;14.10;13.60;;;11.60;1.00;;;;;;5076267;28;20540;-80
2023/10/27 02:59:57;;;;;;;13.00;12.70;;;11.60;99.90;;;;;;5073057;28;20490;-79
2023/10/27 03:02:27;;;;;;;13.60;13.00;;;11.60;1.00;;;;;;5077328;28;20494;-79
2023/10/27 03:04:56;;;;;;;13.13;12.60;;;11.60;99.90;;;;;;5071962;28;20466;-80
2023/10/27 03:07:26;;;;;;;13.30;12.80;;;11.60;1.00;;;;;;5069577;28;20479;-80
2023/10/27 03:09:54;;;;;;;13.10;12.60;;;11.50;99.90;;;;;;5075435;28;20463;-80
2023/10/27 03:12:22;;;;;;;13.00;12.70;;;11.50;99.90;;;;;;5072842;28;20446;-79
2023/10/27 03:14:51;;;;;;;13.80;13.30;;;11.50;99.90;;;;;;5075219;28;20777;-80
2023/10/27 03:17:19;;;;;;;13.60;13.10;;;11.50;99.90;;;;;;5076550;28;20509;-80
2023/10/27 03:19:49;;;;;;;13.50;13.13;;;11.50;99.90;;;;;;5073187;28;20489;-79
2023/10/27 03:22:18;;;;;;;14.10;13.63;;;11.50;92.30;;;;;;5076223;28;20481;-79
2023/10/27 03:24:48;;;;;;;13.97;13.47;;;11.50;99.90;;;;;;5076830;28;20475;-80
2023/10/27 03:27:16;;;;;;;14.10;13.70;;;11.60;99.90;;;;;;5072822;28;20540;-80
2023/10/27 03:29:46;;;;;;;14.00;13.50;;;11.60;1.00;;;;;;5076850;28;20478;-79
2023/10/27 03:32:15;;;;;;;13.90;13.60;;;11.60;99.90;;;;;;5072266;28;20458;-79
2023/10/27 03:34:45;;;;;;;14.50;14.10;;;11.60;99.90;;;;;;5074201;28;20461;-80
2023/10/27 03:37:14;;;;;;;14.00;13.70;;;11.50;99.90;;;;;;5073510;28;20469;-79
2023/10/27 03:39:43;;;;;;;13.83;13.53;;;11.50;37.90;;;;;;5077026;28;20508;-79
2023/10/27 03:42:13;;;;;;;14.10;13.50;;;11.40;99.90;;;;;;5072435;28;20475;-79
2023/10/27 03:44:42;;;;;;;13.77;13.20;;;11.50;26.50;;;;;;5076155;28;20455;-80
2023/10/27 03:47:11;;;;;;;14.10;13.67;;;11.50;1.00;;;;;;5078116;28;20515;-79
2023/10/27 03:49:39;;;;;;;13.90;13.50;;;11.50;99.90;;;;;;5075344;28;20484;-79
2023/10/27 03:52:09;;;;;;;14.23;13.63;;;11.40;99.90;;;;;;5072029;28;20459;-80
2023/10/27 03:54:37;;;;;;;14.40;13.90;;;11.40;99.90;;;;;;5079282;28;20460;-79
2023/10/27 03:57:06;;;;;;;13.97;13.57;;;11.40;1.00;;;;;;5077161;28;20509;-80
2023/10/27 03:59:35;;;;;;;14.00;13.60;;;11.40;99.90;;;;;;5081160;28;20481;-80
2023/10/27 04:02:06;;;;;;;14.17;13.80;;;11.50;99.90;;;;;;5073902;28;21279;-80
2023/10/27 04:04:35;;;;;;;13.77;13.37;;;11.50;99.90;;;;;;5079726;28;20459;-80
2023/10/27 04:07:03;;;;;;;13.17;12.87;;;11.50;99.90;;;;;;5079358;28;20471;-80
2023/10/27 04:09:31;;;;;;;13.63;13.33;;;11.50;1.00;;;;;;5079336;28;20503;-81
2023/10/27 04:12:00;;;;;;;13.00;12.70;;;11.50;1.00;;;;;;5075590;28;21050;-82
2023/10/27 04:14:28;;;;;;;13.73;13.30;;;11.50;99.90;;;;;;5079327;28;20459;-81
2023/10/27 04:16:58;;;;;;;13.40;12.90;;;11.60;1.00;;;;;;5075819;28;21267;-82
2023/10/27 04:19:26;;;;;;;13.40;13.10;;;11.60;99.90;;;;;;5074351;28;20979;-81
2023/10/27 04:21:54;;;;;;;13.10;12.80;;;11.60;1.00;;;;;;5074066;28;20481;-81
2023/10/27 04:24:23;;;;;;;13.40;13.10;;;11.60;99.90;;;;;;5078109;28;20450;-80
2023/10/27 04:26:52;;;;;;;13.73;13.33;;;11.60;99.90;;;;;;5080741;28;20475;-81
2023/10/27 04:29:21;;;;;;;13.50;13.20;;;11.60;99.90;;;;;;5081028;28;20457;-79
2023/10/27 04:31:49;;;;;;;13.70;13.40;;;11.60;1.00;;;;;;5073596;28;20466;-79
2023/10/27 04:34:20;;;;;;;13.80;13.40;;;11.60;1.00;;;;;;5075282;28;21018;-81
2023/10/27 04:36:48;;;;;;;14.40;13.97;;;11.60;1.00;;;;;;5077830;28;21349;-80
2023/10/27 04:39:17;;;;;;;15.23;14.73;;;11.50;99.90;;;;;;5075466;28;20811;-81
2023/10/27 04:41:45;;;;;;;14.10;13.70;;;11.60;99.90;;;;;;5076029;28;20494;-80
2023/10/27 04:44:13;;;;;;;13.60;13.30;;;11.50;1.00;;;;;;5074509;28;20464;-79
2023/10/27 04:46:42;;;;;;;13.57;13.27;;;11.60;99.90;;;;;;5074358;28;20521;-80
2023/10/27 04:49:10;;;;;;;13.33;13.03;;;11.60;1.00;;;;;;5074817;28;20535;-79
2023/10/27 04:51:40;;;;;;;13.70;13.30;;;11.60;99.90;;;;;;5071541;28;20554;-80
2023/10/27 04:54:08;;;;;;;13.97;13.57;;;11.60;99.90;;;;;;5077048;28;20477;-80
2023/10/27 04:56:36;;;;;;;13.47;13.17;;;11.60;1.00;;;;;;5073602;28;20471;-80
2023/10/27 04:59:05;;;;;;;14.27;13.87;;;11.60;1.00;;;;;;5077969;28;20459;-80
2023/10/27 05:01:33;;;;;;;14.23;13.83;;;11.60;1.00;;;;;;5073586;28;20497;-81
2023/10/27 05:04:02;;;;;;;13.87;13.37;;;11.60;99.90;;;;;;5074999;28;20471;-82
2023/10/27 05:06:31;;;;;;;14.30;13.60;;;11.60;1.00;;;;;;5081221;28;20481;-80
2023/10/27 05:09:01;;;;;;;14.33;13.83;;;11.60;99.90;;;;;;5075901;28;20525;-81
2023/10/27 05:11:29;;;;;;;14.10;13.70;;;11.60;31.60;;;;;;5074790;28;20462;-80
2023/10/27 05:13:57;;;;;;;13.70;13.40;;;11.60;1.00;;;;;;5073015;28;20454;-81
2023/10/27 05:16:25;;;;;;;14.77;14.00;;;11.60;1.00;;;;;;5074647;28;20482;-81
2023/10/27 05:18:54;;;;;;;14.10;13.70;;;11.60;1.00;;;;;;5076555;28;20451;-81
2023/10/27 05:21:26;;;;;;;13.93;13.50;;;11.60;99.90;;;;;;5074502;28;20446;-81
2023/10/27 05:23:56;;;;;;;14.00;13.70;;;11.60;1.00;;;;;;5070484;28;21007;-81
2023/10/27 05:26:27;;;;;;;14.33;13.93;;;11.50;99.90;;;;;;5074067;28;20470;-81
2023/10/27 05:28:55;;;;;;;14.30;13.90;;;11.50;99.90;;;;;;5075343;28;20474;-80
2023/10/27 05:31:27;;;;;;;14.00;13.70;;;11.50;1.00;;;;;;5066508;28;20458;-79
2023/10/27 05:33:56;;;;;;;14.10;13.70;;;11.50;99.90;;;;;;5066177;28;20451;-80
2023/10/27 05:36:24;;;;;;;13.90;13.50;;;11.50;99.90;;;;;;5069260;28;20479;-80
2023/10/27 05:38:52;;;;;;;13.73;13.43;;;11.50;1.00;;;;;;5070912;28;21189;-80
2023/10/27 05:41:20;;;;;;;13.63;13.33;;;11.40;99.90;;;;;;5070220;28;20481;-81
2023/10/27 05:43:51;;;;;;;13.40;13.10;;;11.40;1.00;;;;;;5069849;28;20484;-79
2023/10/27 05:46:19;;;;;;;14.43;13.77;;;11.50;1.00;;;;;;5071374;28;20485;-80
2023/10/27 05:48:47;;;;;;;13.93;13.53;;;11.50;1.00;;;;;;5076413;28;20455;-79
2023/10/27 05:51:17;;;;;;;14.50;13.97;;;11.50;1.00;;;;;;5075759;28;20503;-80
2023/10/27 05:53:45;;;;;;;14.43;13.93;;;11.50;1.00;;;;;;5072405;28;20457;-80
2023/10/27 05:56:14;;;;;;;14.50;14.10;;;11.50;1.00;;;;;;5070528;28;20451;-81
2023/10/27 05:58:42;;;;;;;14.20;13.90;;;11.50;1.00;;;;;;5074139;28;20204;-80
2023/10/27 06:01:12;;;;;;;14.17;13.77;;;11.50;1.00;;;;;;5075888;28;20450;-78
2023/10/27 06:03:40;;;;;;;14.23;13.80;;;11.50;1.00;;;;;;5075068;28;20466;-79
2023/10/27 06:06:08;;;;;;;13.87;13.57;;;11.50;1.00;;;;;;5072918;28;20484;-80
2023/10/27 06:08:42;;;;;;;14.07;13.70;;;11.50;1.00;;;;;;5074690;28;20863;-79
2023/10/27 06:11:10;;;;;;;14.23;13.83;;;11.50;99.90;;;;;;5071606;28;20553;-79
2023/10/27 06:13:38;;;;;;;15.10;14.60;;;11.50;1.00;;;;;;5070985;28;20971;-80
2023/10/27 06:16:08;;;;;;;14.20;13.90;;;11.50;24.70;;;;;;5076774;28;20478;-81
2023/10/27 06:18:38;;;;;;;13.93;13.53;;;11.60;11.20;;;;;;5074349;28;20480;-80
2023/10/27 06:21:06;;;;;;;14.33;13.97;;;11.50;1.00;;;;;;5077883;28;20956;-80
2023/10/27 06:23:35;;;;;;;13.80;13.40;;;11.50;99.90;;;;;;5075916;28;20479;-81
2023/10/27 06:26:04;;;;;;;14.80;14.30;;;11.50;1.00;;;;;;5077013;28;20483;-81
2023/10/27 06:28:34;;;;;;;14.67;14.20;;;11.50;12.80;;;;;;5074852;28;20443;-80
2023/10/27 06:31:03;;;;;;;14.43;14.03;;;11.50;99.90;;;;;;5077543;28;20451;-80
2023/10/27 06:33:32;;;;;;;13.87;13.57;;;11.50;99.90;;;;;;5075994;28;20535;-80
2023/10/27 06:36:02;;;;;;;14.73;14.33;;;11.50;99.90;;;;;;5074407;28;20481;-80
2023/10/27 06:38:30;;;;;;;14.40;14.00;;;11.50;99.90;;;;;;5076467;28;20524;-81
2023/10/27 06:40:59;;;;;;;14.50;14.03;;;11.50;99.90;;;;;;5076468;28;20466;-80
2023/10/27 06:43:28;;;;;;;14.30;13.90;;;11.50;1.00;;;;;;5078651;28;20470;-81
2023/10/27 06:45:56;;;;;;;13.80;13.50;;;11.50;99.90;;;;;;5075270;28;21380;-81
2023/10/27 06:48:25;;;;;;;14.10;13.70;;;11.60;99.90;;;;;;5074099;28;20513;-82
2023/10/27 06:50:53;;;;;;;14.10;13.80;;;11.60;99.90;;;;;;5076365;28;20450;-82
2023/10/27 06:53:22;;;;;;;14.10;13.70;;;11.60;1.00;;;;;;5073674;28;20865;-81
2023/10/27 06:55:51;;;;;;;13.70;13.40;;;11.60;1.00;;;;;;5076051;28;20455;-80
2023/10/27 06:58:19;;;;;;;13.90;13.50;;;11.70;1.00;;;;;;5075587;28;20486;-81
2023/10/27 07:00:47;;;;;;;14.03;13.53;;;11.70;99.90;;;;;;5077569;28;20454;-81
2023/10/27 07:03:17;;;;;;;13.60;13.30;;;11.70;99.90;;;;;;5073736;28;20435;-81
2023/10/27 07:05:59;;;;;;;13.50;13.20;;;11.60;99.90;;;;;;5076589;28;20478;-81
2023/10/27 07:08:30;;;;;;;13.70;13.30;;;11.70;99.90;;;;;;5070167;28;20535;-80
2023/10/27 07:10:59;;;;;;;13.73;13.43;;;11.60;99.90;;;;;;5074479;28;20455;-81
2023/10/27 07:13:27;;;;;;;13.77;13.47;;;11.60;99.90;;;;;;5074216;28;20550;-80
2023/10/27 07:15:56;;;;;;;13.33;13.03;;;11.60;1.00;;;;;;5074002;28;20472;-81
2023/10/27 07:18:25;;;;;;;13.30;13.00;;;11.60;1.00;;;;;;5075131;28;20516;-81
2023/10/27 07:20:53;;;;;;;13.47;13.17;;;11.70;1.00;;;;;;5077367;28;20450;-81
2023/10/27 07:23:21;;;;;;;13.33;13.00;;;11.70;1.00;;;;;;5078224;28;20460;-80
2023/10/27 07:25:52;;;;;;;13.90;13.60;;;11.70;1.00;;;;;;5076369;28;20450;-82
2023/10/27 07:28:21;;;;;;;13.63;13.33;;;11.80;1.00;;;;;;5079752;28;20462;-80
2023/10/27 07:30:49;;;;;;;14.83;14.10;;;11.80;1.00;;;;;;5084169;28;20975;-82
2023/10/27 07:33:18;;;;;;;14.27;13.97;;;11.80;61.40;;;;;;5078476;28;20459;-80
2023/10/27 07:35:47;;;;;;;14.50;14.20;;;11.70;1.00;;;;;;5079168;28;21021;-81
2023/10/27 07:38:16;;;;;;;14.50;14.20;;;11.70;24.60;;;;;;5074723;28;21084;-81
2023/10/27 07:40:45;;;;;;;14.20;13.80;;;11.70;99.90;;;;;;5079583;28;20831;-81
2023/10/27 07:43:14;;;;;;;13.80;13.50;;;11.70;99.90;;;;;;5080912;28;20455;-81
2023/10/27 07:45:46;;;;;;;13.80;13.50;;;11.70;99.90;;;;;;5078930;28;20477;-81
2023/10/27 07:48:14;;;;;;;13.90;13.60;;;11.70;1.00;;;;;;5078755;28;20443;-81
2023/10/27 07:50:44;;;;;;;13.80;13.50;;;11.80;1.00;;;;;;5075907;28;20503;-80
2023/10/27 07:53:12;;;;;;;13.90;13.60;;;11.60;1.00;;;;;;5080375;28;20516;-81
2023/10/27 07:55:40;;;;;;;13.50;13.20;;;11.60;1.00;;;;;;5077565;28;20960;-81
2023/10/27 07:58:09;;;;;;;14.20;13.80;;;11.50;1.00;;;;;;5080167;28;20533;-80
2023/10/27 08:00:39;;;;;;;14.10;13.80;;;11.60;1.00;;;;;;5081454;28;20510;-80
2023/10/27 08:03:07;;;;;;;14.00;13.70;;;11.60;1.00;;;;;;5080249;28;21142;-80
2023/10/27 08:05:36;;;;;;;13.60;13.30;;;11.60;98.50;;;;;;5077915;28;20479;-79
2023/10/27 08:08:05;;;;;;;13.33;13.10;;;11.60;99.90;;;;;;5080244;28;20534;-80
2023/10/27 08:10:33;;;;;;;13.70;13.40;;;11.60;99.90;;;;;;5079679;28;20463;-82
2023/10/27 08:13:01;;;;;;;13.80;13.40;;;11.60;99.90;;;;;;5078544;28;20457;-80
2023/10/27 08:15:30;;;;;;;13.60;13.20;;;11.70;99.90;;;;;;5080372;28;20451;-81
2023/10/27 08:18:00;;;;;;;13.33;13.00;;;11.70;10.70;;;;;;5086995;28;20462;-80
2023/10/27 08:20:29;;;;;;;13.70;13.30;;;11.70;71.40;;;;;;5077688;28;20453;-80
2023/10/27 08:22:57;;;;;;;13.60;13.30;;;11.70;99.90;;;;;;5081917;28;20837;-80
2023/10/27 08:25:26;;;;;;;13.80;13.50;;;11.70;3.40;;;;;;5077687;28;20484;-80
2023/10/27 08:27:54;;;;;;;13.70;13.40;;;11.70;1.00;;;;;;5075797;28;20479;-81
2023/10/27 08:30:23;;;;;;;13.70;13.30;;;11.70;1.00;;;;;;5076461;28;20450;-81
2023/10/27 08:32:52;;;;;;;13.60;13.30;;;11.70;29.30;;;;;;5078981;28;20466;-82
2023/10/27 08:35:22;;;;;;;13.60;13.30;;;11.70;1.00;;;;;;5081771;28;20469;-80
2023/10/27 08:37:50;;;;;;;14.13;13.83;;;11.70;1.00;;;;;;5078105;28;20482;-81
2023/10/27 08:40:19;;;;;;;13.90;13.60;;;11.70;93.00;;;;;;5077289;28;20465;-81
2023/10/27 08:42:49;;;;;;;14.10;13.80;;;11.70;99.90;;;;;;5080044;28;20824;-80
2023/10/27 08:45:17;;;;;;;14.20;13.80;;;11.70;1.00;;;;;;5082957;28;21002;-81
2023/10/27 08:47:46;;;;;;;13.90;13.60;;;11.60;1.00;;;;;;5082387;28;20513;-80
2023/10/27 08:50:14;;;;;;;14.10;13.70;;;11.60;1.00;;;;;;5080463;28;20455;-82
2023/10/27 08:52:44;;;;;;;13.93;13.63;;;11.70;99.90;;;;;;5081793;28;20512;-81
2023/10/27 08:55:12;;;;;;;13.57;13.27;;;11.70;99.90;;;;;;5072610;28;20451;-82
2023/10/27 08:57:41;;;;;;;13.60;13.30;;;11.70;99.90;;;;;;5075408;28;20487;-81
2023/10/27 09:00:10;;;;;;;13.73;13.43;;;11.70;99.90;;;;;;5081209;28;20464;-82
2023/10/27 09:02:39;;;;;;;14.00;13.70;;;11.70;99.90;;;;;;5078289;28;20497;-81
2023/10/27 09:05:09;;;;;;;14.93;14.50;;;11.70;99.90;;;;;;5079725;28;20478;-81
2023/10/27 09:07:38;;;;;;;14.20;13.90;;;11.70;99.90;;;;;;5079722;28;20997;-80
2023/10/27 09:10:09;;;;;;;14.20;13.90;;;11.80;99.90;;;;;;5072360;28;20819;-81
2023/10/27 09:12:39;;;;;;;14.20;13.90;;;11.80;99.90;;;;;;5076749;28;20463;-81
2023/10/27 09:15:09;;;;;;;14.10;13.80;;;11.80;99.90;;;;;;5078293;28;20545;-81
2023/10/27 09:17:54;;;;;;;14.50;14.10;;;11.90;99.90;;;;;;5076710;28;20494;-81
2023/10/27 09:20:24;;;;;;;14.80;14.40;;;11.80;99.90;;;;;;5080106;28;20465;-81
2023/10/27 09:22:57;;;;;;;14.50;14.20;;;11.80;99.90;;;;;;5079428;28;21049;-80
2023/10/27 09:25:31;;;;;;;14.80;14.40;;;11.80;99.90;;;;;;5075437;28;20479;-81
2023/10/27 09:28:03;;;;;;;14.30;14.00;;;11.90;1.00;;;;;;5071614;28;20482;-80
2023/10/27 09:30:33;;;;;;;14.40;14.10;;;11.90;99.90;;;;;;5080762;28;20938;-80
2023/10/27 09:33:13;;;;;;;14.30;13.90;;;11.80;99.90;;;;;;5078141;28;20457;-81
2023/10/27 09:35:42;;;;;;;14.20;13.90;;;11.70;1.00;;;;;;5073480;28;20867;-81
2023/10/27 09:38:12;;;;;;;14.30;14.00;;;11.80;1.00;;;;;;5078792;28;20528;-81
2023/10/27 09:40:43;;;;;;;15.90;15.00;;;11.90;1.00;;;;;;5076871;28;21047;-80
2023/10/27 09:43:17;;;;;;;14.63;14.23;;;11.90;99.90;;;;;;5078433;28;20447;-82
2023/10/27 09:45:53;;;;;;;15.07;14.67;;;11.90;99.90;;;;;;5078576;28;20478;-81
2023/10/27 09:48:25;;;;;;;14.70;14.20;;;11.90;99.90;;;;;;5076889;28;20465;-80
2023/10/27 09:51:01;;;;;;;14.63;14.23;;;11.90;99.90;;;;;;5074007;28;20455;-81
2023/10/27 09:53:30;;;;;;;14.50;14.20;;;11.90;99.90;;;;;;5080667;28;20455;-81
2023/10/27 09:56:01;;;;;;;14.93;14.53;;;12.30;99.90;;;;;;5079327;28;20470;-80
2023/10/27 09:58:32;;;;;;;15.37;14.80;;;13.10;99.90;;;;;;5077613;28;20450;-81
2023/10/27 10:01:02;;;;;;;15.23;14.70;;;13.20;1.00;;;;;;5076693;28;20541;-81
2023/10/27 10:03:32;;;;;;;15.00;14.60;;;13.10;1.00;;;;;;5078014;28;20520;-81
2023/10/27 10:06:12;;;;;;;15.73;15.03;;;12.90;99.90;;;;;;5072169;28;20495;-80
2023/10/27 10:08:41;;;;;;;15.03;14.63;;;12.60;99.90;;;;;;5077771;28;20461;-80
2023/10/27 10:11:16;;;;;;;15.10;14.70;;;12.70;1.00;;;;;;5074046;28;20459;-81
2023/10/27 10:13:46;;;;;;;15.00;14.50;;;12.80;99.90;;;;;;5076347;28;20477;-81
2023/10/27 10:16:16;;;;;;;15.00;14.60;;;13.00;1.00;;;;;;5077994;28;20566;-81
2023/10/27 10:18:52;;;;;;;15.40;14.87;;;13.30;99.90;;;;;;5078730;28;20956;-81
2023/10/27 10:21:35;;;;;;;15.67;15.10;;;13.70;99.90;;;;;;5076135;28;20472;-81
2023/10/27 10:24:11;;;;;;;16.27;15.87;;;15.50;99.90;;;;;;5080290;28;21468;-82
2023/10/27 10:27:13;;;;;;;19.23;18.33;;;17.70;1.00;;;;;;5076216;28;20482;-84
2023/10/27 10:29:44;;;;;;;15.10;14.70;;;18.20;1.00;;;;;;5080903;28;20488;-82
2023/10/27 10:32:36;;;;;;;15.03;14.40;;;19.50;99.90;;;;;;5077541;28;20497;-83
2023/10/27 10:35:22;;;;;;;15.60;15.00;;;21.20;99.90;;;;;;5074438;28;20466;-81
2023/10/27 10:37:54;;;;;;;13.80;13.40;;;20.50;99.90;;;;;;5073954;28;20802;-80
2023/10/27 10:40:27;;;;;;;14.80;14.30;;;18.20;99.90;;;;;;5076399;28;20482;-81
2023/10/27 10:43:24;;;;;;;14.93;14.37;;;17.70;99.90;;;;;;5077168;28;20447;-82
2023/10/27 10:45:54;;;;;;;14.40;13.90;;;19.10;99.90;;;;;;5074732;28;20482;-82
2023/10/27 10:48:24;;;;;;;14.50;14.10;;;18.10;99.90;;;;;;5074003;28;20943;-80
2023/10/27 10:50:55;;;;;;;14.43;14.03;;;17.80;99.90;;;;;;5076750;28;20443;-81
2023/10/27 10:53:25;;;;;;;14.10;13.70;;;17.60;99.90;;;;;;5071862;28;20469;-82
2023/10/27 10:55:58;;;;;;;13.97;13.60;;;17.50;99.90;;;;;;5077020;28;20478;-82
2023/10/27 10:58:30;;;;;;;14.23;13.63;;;17.40;99.90;;;;;;5081295;28;20458;-82
2023/10/27 11:01:00;;;;;;;14.87;14.17;;;17.40;99.90;;;;;;5078861;28;20483;-83
2023/10/27 11:03:31;;;;;;;14.63;14.23;;;17.50;99.90;;;;;;5079253;28;20458;-82
2023/10/27 11:06:01;;;;;;;13.60;13.20;;;18.90;99.90;;;;;;5080161;28;20468;-81
2023/10/27 11:08:31;;;;;;;12.77;12.47;;;19.70;99.90;;;;;;5080087;28;21100;-82
2023/10/27 11:11:05;;;;;;;12.70;12.40;;;19.50;99.90;;;;;;5079943;28;20443;-82
2023/10/27 11:13:41;;;;;;;13.13;12.70;;;18.70;99.90;;;;;;5079139;28;21104;-82
2023/10/27 11:16:16;;;;;;;12.87;12.57;;;17.90;99.90;;;;;;5075917;28;20469;-83
2023/10/27 11:18:46;;;;;;;13.30;12.80;;;17.30;99.90;;;;;;5077275;28;20458;-82
2023/10/27 11:21:18;;;;;;;13.30;12.80;;;17.00;99.90;;;;;;5076719;28;20901;-83
2023/10/27 11:23:47;;;;;;;13.20;12.90;;;16.80;99.90;;;;;;5077478;28;20450;-81
2023/10/27 11:26:17;;;;;;;14.50;13.90;;;16.50;99.90;;;;;;5073323;28;21101;-83
2023/10/27 11:28:48;;;;;;;13.27;12.87;;;16.50;99.90;;;;;;5073303;28;20447;-82
2023/10/27 11:31:29;;;;;;;13.67;13.13;;;16.50;99.90;;;;;;5079405;28;20746;-82
2023/10/27 11:34:02;;;;;;;13.37;12.83;;;16.50;99.90;;;;;;5074442;28;20990;-83
2023/10/27 11:36:31;;;;;;;13.10;12.70;;;16.50;99.90;;;;;;5075933;28;21252;-82
2023/10/27 11:39:13;;;;;;;12.83;12.47;;;16.50;99.90;;;;;;5073560;28;20450;-82
2023/10/27 11:41:42;;;;;;;12.83;12.47;;;16.40;99.90;;;;;;5077791;28;20454;-82
2023/10/27 11:44:12;;;;;;;13.00;12.50;;;16.20;99.90;;;;;;5077086;28;20549;-84
2023/10/27 11:46:46;;;;;;;13.17;12.77;;;15.90;99.90;;;;;;5077385;28;20506;-81
2023/10/27 11:49:15;;;;;;;11.70;11.30;;;15.80;99.90;;;;;;5079851;28;20489;-82
2023/10/27 11:51:44;;;;;;;12.17;11.77;;;15.80;99.90;;;;;;5076638;28;20542;-82
2023/10/27 11:54:15;;;;;;;12.30;11.83;;;15.70;99.90;;;;;;5079864;28;21054;-82
2023/10/27 11:56:44;;;;;;;12.37;12.07;;;15.60;99.90;;;;;;5075416;28;21231;-82
2023/10/27 11:59:14;;;;;;;12.27;11.73;;;15.80;99.90;;;;;;5074101;28;20495;-81
2023/10/27 12:01:42;;;;;;;12.17;11.80;;;15.70;99.90;;;;;;5081526;28;20450;-82
2023/10/27 12:04:11;;;;;;;12.67;12.07;;;15.70;99.90;;;;;;5079927;28;20467;-82
2023/10/27 12:06:39;;;;;;;12.30;12.00;;;15.70;99.90;;;;;;5076805;28;21070;-81
2023/10/27 12:09:08;;;;;;;12.17;11.70;;;15.80;99.90;;;;;;5082158;28;20547;-83
2023/10/27 12:11:37;;;;;;;11.90;11.50;;;15.80;99.90;;;;;;5080871;28;20877;-82
2023/10/27 12:14:06;;;;;;;11.70;11.30;;;15.60;99.90;;;;;;5079109;28;20537;-82
2023/10/27 12:16:35;;;;;;;11.20;10.93;;;15.60;99.90;;;;;;5080874;28;20481;-80
2023/10/27 12:19:05;;;;;;;11.37;11.10;;;15.50;99.90;;;;;;5085579;28;20446;-81
2023/10/27 12:21:35;;;;;;;11.60;11.30;;;15.50;99.90;;;;;;5081558;28;20848;-82
2023/10/27 12:24:04;;;;;;;12.33;11.63;;;15.50;99.90;;;;;;5080230;28;20447;-82
2023/10/27 12:26:33;;;;;;;12.67;11.93;;;15.30;99.90;;;;;;5079236;28;20481;-82
2023/10/27 12:29:02;;;;;;;12.23;11.83;;;15.30;99.90;;;;;;5076612;28;20459;-82
2023/10/27 12:31:32;;;;;;;12.37;11.97;;;15.30;99.90;;;;;;5074232;28;20451;-83
2023/10/27 12:34:03;;;;;;;12.30;11.73;;;15.30;99.90;;;;;;5074756;28;20461;-81
2023/10/27 12:36:32;;;;;;;12.33;12.00;;;15.20;99.90;;;;;;5081888;28;20473;-82
2023/10/27 12:39:02;;;;;;;12.30;11.80;;;15.00;99.90;;;;;;5076523;28;20969;-81
2023/10/27 12:41:30;;;;;;;11.80;11.40;;;14.90;99.90;;;;;;5080391;28;21113;-82
2023/10/27 12:43:59;;;;;;;11.53;11.23;;;14.90;99.90;;;;;;5078710;28;20465;-82